createdAt,value
2022-08-24T00:00:31.792Z,16.10
2022-08-24T00:02:58.592Z,16.08
2022-08-24T00:05:25.294Z,16.03
2022-08-24T00:07:51.935Z,16.00
2022-08-24T00:10:21.154Z,15.99
2022-08-24T00:12:47.936Z,15.97
2022-08-24T00:15:15.695Z,16.03
2022-08-24T00:17:42.971Z,15.99
2022-08-24T00:20:11.510Z,16.01
2022-08-24T00:22:39.019Z,16.00
2022-08-24T00:25:06.111Z,16.00
2022-08-24T00:27:32.912Z,15.98
2022-08-24T00:29:59.499Z,15.96
2022-08-24T00:32:26.218Z,15.96
2022-08-24T00:34:58.616Z,16.00
2022-08-24T00:37:28.479Z,15.97
2022-08-24T00:39:56.110Z,15.96
2022-08-24T00:42:23.398Z,15.93
2022-08-24T00:44:50.001Z,15.91
2022-08-24T00:47:25.828Z,15.89
2022-08-24T00:50:01.208Z,15.90
2022-08-24T00:52:33.418Z,15.90
2022-08-24T00:55:13.133Z,15.91
2022-08-24T00:57:43.178Z,15.95
2022-08-24T01:00:16.348Z,15.97
2022-08-24T01:02:45.712Z,15.96
2022-08-24T01:05:13.614Z,15.99
2022-08-24T01:07:41.254Z,15.99
2022-08-24T01:10:14.144Z,15.99
2022-08-24T01:12:48.225Z,16.04
2022-08-24T01:15:29.787Z,16.00
2022-08-24T01:18:12.167Z,15.98
2022-08-24T01:20:39.046Z,15.96
2022-08-24T01:23:09.447Z,15.96
2022-08-24T01:25:37.671Z,15.95
2022-08-24T01:28:10.397Z,15.95
2022-08-24T01:30:37.397Z,15.93
2022-08-24T01:33:08.973Z,15.91
2022-08-24T01:35:38.238Z,15.93
2022-08-24T01:38:08.736Z,15.90
2022-08-24T01:40:53.658Z,15.90
2022-08-24T01:43:20.357Z,15.91
2022-08-24T01:45:46.921Z,15.92
2022-08-24T01:48:15.335Z,15.93
2022-08-24T01:50:49.676Z,15.89
2022-08-24T01:53:16.659Z,15.91
2022-08-24T01:55:43.867Z,15.88
2022-08-24T01:58:10.493Z,15.84
2022-08-24T02:00:37.732Z,15.84
2022-08-24T02:03:05.184Z,15.79
2022-08-24T02:05:32.125Z,15.77
2022-08-24T02:07:58.923Z,15.78
2022-08-24T02:10:26.470Z,15.75
2022-08-24T02:13:00.669Z,15.74
2022-08-24T02:15:34.743Z,15.80
2022-08-24T02:18:01.558Z,15.81
2022-08-24T02:20:28.537Z,15.84
2022-08-24T02:22:57.309Z,15.83
2022-08-24T02:25:25.030Z,15.80
2022-08-24T02:27:51.965Z,15.81
2022-08-24T02:30:19.318Z,15.75
2022-08-24T02:32:45.919Z,15.70
2022-08-24T02:35:12.723Z,15.63
2022-08-24T02:37:43.532Z,15.63
2022-08-24T02:40:12.543Z,15.61
2022-08-24T02:42:39.761Z,15.64
2022-08-24T02:45:08.016Z,15.63
2022-08-24T02:47:38.851Z,15.62
2022-08-24T02:50:08.220Z,15.62
2022-08-24T02:52:37.205Z,15.59
2022-08-24T02:55:04.639Z,15.59
2022-08-24T02:57:31.425Z,15.60
2022-08-24T02:59:58.089Z,15.58
2022-08-24T03:02:24.777Z,15.54
2022-08-24T03:04:51.406Z,15.47
2022-08-24T03:07:18.080Z,15.45
2022-08-24T03:09:44.718Z,15.43
2022-08-24T03:12:11.539Z,15.36
2022-08-24T03:14:38.188Z,15.24
2022-08-24T03:17:05.292Z,15.22
2022-08-24T03:19:31.895Z,15.27
2022-08-24T03:21:58.530Z,15.24
2022-08-24T03:24:25.091Z,15.16
2022-08-24T03:26:52.475Z,15.13
2022-08-24T03:29:19.191Z,15.09
2022-08-24T03:31:46.642Z,15.01
2022-08-24T03:34:13.594Z,14.97
2022-08-24T03:36:41.735Z,15.01
2022-08-24T03:39:08.371Z,15.05
2022-08-24T03:41:35.401Z,15.06
2022-08-24T03:44:04.223Z,15.04
2022-08-24T03:46:36.810Z,15.02
2022-08-24T03:49:08.710Z,15.08
2022-08-24T03:51:37.012Z,15.11
2022-08-24T03:54:05.817Z,15.15
2022-08-24T03:56:32.540Z,15.15
2022-08-24T03:58:59.841Z,15.16
2022-08-24T04:01:27.032Z,15.12
2022-08-24T04:03:55.232Z,15.08
2022-08-24T04:06:22.749Z,15.07
2022-08-24T04:08:50.025Z,15.13
2022-08-24T04:11:20.035Z,15.12
2022-08-24T04:13:48.152Z,15.09
2022-08-24T04:16:17.692Z,15.07
2022-08-24T04:18:44.767Z,15.07
2022-08-24T04:21:29.247Z,15.09
2022-08-24T04:23:57.399Z,15.08
2022-08-24T04:26:43.763Z,15.09
2022-08-24T04:29:14.778Z,15.13
2022-08-24T04:31:43.059Z,15.16
2022-08-24T04:34:10.592Z,15.20
2022-08-24T04:36:37.338Z,15.19
2022-08-24T04:39:05.337Z,15.22
2022-08-24T04:41:32.004Z,15.21
2022-08-24T04:43:59.750Z,15.24
2022-08-24T04:46:27.579Z,15.24
2022-08-24T04:48:54.735Z,15.26
2022-08-24T04:51:21.417Z,15.25
2022-08-24T04:53:49.627Z,15.21
2022-08-24T04:56:20.158Z,15.20
2022-08-24T04:58:47.257Z,15.21
2022-08-24T05:01:19.320Z,15.18
2022-08-24T05:03:49.211Z,15.18
2022-08-24T05:06:18.591Z,15.20
2022-08-24T05:08:47.341Z,15.20
2022-08-24T05:11:15.196Z,15.24
2022-08-24T05:13:41.864Z,15.27
2022-08-24T05:16:10.676Z,15.25
2022-08-24T05:18:37.883Z,15.28
2022-08-24T05:21:12.241Z,15.34
2022-08-24T05:23:40.169Z,15.38
2022-08-24T05:26:12.746Z,15.38
2022-08-24T05:28:39.944Z,15.38
2022-08-24T05:31:20.100Z,15.41
2022-08-24T05:33:48.282Z,15.45
2022-08-24T05:36:19.251Z,15.51
2022-08-24T05:38:47.895Z,15.54
2022-08-24T05:41:15.800Z,15.57
2022-08-24T05:43:43.515Z,15.61
2022-08-24T05:46:10.243Z,15.68
2022-08-24T05:48:37.791Z,15.77
2022-08-24T05:51:05.982Z,15.80
2022-08-24T05:53:33.281Z,15.85
2022-08-24T05:56:05.231Z,15.87
2022-08-24T05:58:31.945Z,15.88
2022-08-24T06:01:00.079Z,15.92
2022-08-24T06:03:27.173Z,15.95
2022-08-24T06:05:55.105Z,16.00
2022-08-24T06:08:22.040Z,16.04
2022-08-24T06:10:48.875Z,15.97
2022-08-24T06:13:16.904Z,15.96
2022-08-24T06:15:51.119Z,16.05
2022-08-24T06:18:30.626Z,16.33
2022-08-24T06:20:57.816Z,16.28
2022-08-24T06:23:24.953Z,16.33
2022-08-24T06:26:07.176Z,16.49
2022-08-24T06:28:33.759Z,16.43
2022-08-24T06:31:07.435Z,16.57
2022-08-24T06:33:34.096Z,16.57
2022-08-24T06:36:00.931Z,16.84
2022-08-24T06:38:27.739Z,16.88
2022-08-24T06:40:54.365Z,17.04
2022-08-24T06:43:20.996Z,17.17
2022-08-24T06:45:47.625Z,17.09
2022-08-24T06:48:14.337Z,17.24
2022-08-24T06:50:41.134Z,17.09
2022-08-24T06:53:08.039Z,17.07
2022-08-24T06:55:34.919Z,17.28
2022-08-24T06:58:02.656Z,17.33
2022-08-24T07:00:32.476Z,17.23
2022-08-24T07:02:59.091Z,17.32
2022-08-24T07:05:26.022Z,17.22
2022-08-24T07:07:53.487Z,17.17
2022-08-24T07:10:22.941Z,17.19
2022-08-24T07:12:49.682Z,17.17
2022-08-24T07:15:16.720Z,17.12
2022-08-24T07:17:43.360Z,17.13
2022-08-24T07:20:10.725Z,17.12
2022-08-24T07:22:37.332Z,17.15
2022-08-24T07:25:04.974Z,17.35
2022-08-24T07:27:31.693Z,17.59
2022-08-24T07:30:23.257Z,17.88
2022-08-24T07:32:44.831Z,18.05
2022-08-24T07:35:11.435Z,18.13
2022-08-24T07:37:41.486Z,18.19
2022-08-24T07:40:09.342Z,18.26
2022-08-24T07:42:36.219Z,18.23
2022-08-24T07:45:03.725Z,18.10
2022-08-24T07:47:40.681Z,18.11
2022-08-24T07:50:13.274Z,18.36
2022-08-24T07:52:40.031Z,18.40
2022-08-24T07:55:06.930Z,18.55
2022-08-24T07:57:33.629Z,18.50
2022-08-24T08:00:01.035Z,18.64
2022-08-24T08:02:30.794Z,18.76
2022-08-24T08:05:03.495Z,18.86
2022-08-24T08:07:31.098Z,18.86
2022-08-24T08:09:57.885Z,18.88
2022-08-24T08:12:24.630Z,18.97
2022-08-24T08:14:51.238Z,19.06
2022-08-24T08:17:17.845Z,19.04
2022-08-24T08:19:44.595Z,18.99
2022-08-24T08:22:26.506Z,18.84
2022-08-24T08:24:53.082Z,19.02
2022-08-24T08:27:21.703Z,19.03
2022-08-24T08:29:49.046Z,19.00
2022-08-24T08:32:17.260Z,19.15
2022-08-24T08:34:44.929Z,19.05
2022-08-24T08:37:12.799Z,19.05
2022-08-24T08:39:40.630Z,19.12
2022-08-24T08:42:13.696Z,19.12
2022-08-24T08:45:03.207Z,19.21
2022-08-24T08:47:50.721Z,19.19
2022-08-24T08:50:23.992Z,19.23
2022-08-24T08:53:21.104Z,19.39
2022-08-24T08:55:59.957Z,19.64
2022-08-24T08:58:57.701Z,19.88
2022-08-24T09:01:48.005Z,20.02
2022-08-24T09:04:31.810Z,20.17
2022-08-24T09:07:14.183Z,20.30
2022-08-24T09:09:48.549Z,20.30
2022-08-24T09:12:36.730Z,20.57
2022-08-24T09:15:25.291Z,20.54
2022-08-24T09:18:08.412Z,20.74
2022-08-24T09:20:50.471Z,20.69
2022-08-24T09:23:19.113Z,20.66
2022-08-24T09:25:59.586Z,20.54
2022-08-24T09:28:43.743Z,20.66
2022-08-24T09:31:41.487Z,20.82
2022-08-24T09:34:18.630Z,20.91
2022-08-24T09:36:54.063Z,20.99
2022-08-24T09:39:21.783Z,21.15
2022-08-24T09:42:25.656Z,21.22
2022-08-24T09:45:22.722Z,21.20
2022-08-24T09:48:05.515Z,21.45
2022-08-24T09:51:02.707Z,21.50
2022-08-24T09:53:46.794Z,21.49
2022-08-24T09:56:29.594Z,21.59
2022-08-24T09:59:20.488Z,21.64
2022-08-24T10:02:06.061Z,21.57
2022-08-24T10:04:48.091Z,21.54
2022-08-24T10:07:41.854Z,21.78
2022-08-24T10:10:34.648Z,21.89
2022-08-24T10:13:14.204Z,22.04
2022-08-24T10:16:00.663Z,21.81
2022-08-24T10:18:42.239Z,21.89
2022-08-24T10:21:18.807Z,21.94
2022-08-24T10:24:15.900Z,21.91
2022-08-24T10:26:57.854Z,21.73
2022-08-24T10:29:45.329Z,21.89
2022-08-24T10:32:47.559Z,22.23
2022-08-24T10:35:20.263Z,22.49
2022-08-24T10:38:17.539Z,22.65
2022-08-24T10:40:54.537Z,22.74
2022-08-24T10:43:40.310Z,22.81
2022-08-24T10:46:38.348Z,23.04
2022-08-24T10:49:32.283Z,22.98
2022-08-24T10:52:15.113Z,23.00
2022-08-24T10:54:41.993Z,22.94
2022-08-24T10:57:22.621Z,22.86
2022-08-24T11:00:09.668Z,22.74
2022-08-24T11:02:43.492Z,22.59
2022-08-24T11:05:14.376Z,22.66
2022-08-24T11:07:58.754Z,22.63
2022-08-24T11:10:32.652Z,22.33
2022-08-24T11:13:23.686Z,22.29
2022-08-24T11:15:55.130Z,22.21
2022-08-24T11:18:23.066Z,22.14
2022-08-24T11:20:53.845Z,22.09
2022-08-24T11:23:28.359Z,22.08
2022-08-24T11:26:04.021Z,22.05
2022-08-24T11:28:44.259Z,22.19
2022-08-24T11:31:14.383Z,22.59
2022-08-24T11:33:52.966Z,22.62
2022-08-24T11:36:26.181Z,22.49
2022-08-24T11:39:23.355Z,22.62
2022-08-24T11:41:56.967Z,22.31
2022-08-24T11:44:37.526Z,22.21
2022-08-24T11:47:26.912Z,22.07
2022-08-24T11:50:24.080Z,22.41
2022-08-24T11:53:18.318Z,22.34
2022-08-24T11:56:05.331Z,22.13
2022-08-24T11:59:01.813Z,22.15
2022-08-24T12:01:34.900Z,22.17
2022-08-24T12:04:01.490Z,22.22
2022-08-24T12:06:50.939Z,22.39
2022-08-24T12:09:50.740Z,22.70
2022-08-24T12:12:33.624Z,22.80
2022-08-24T12:15:12.083Z,23.06
2022-08-24T12:17:47.496Z,23.08
2022-08-24T12:20:27.255Z,23.19
2022-08-24T12:22:59.088Z,23.20
2022-08-24T12:25:45.185Z,23.29
2022-08-24T12:28:14.963Z,23.25
2022-08-24T12:30:41.662Z,23.34
2022-08-24T12:33:13.249Z,23.29
2022-08-24T12:35:45.176Z,23.47
2022-08-24T12:38:19.924Z,23.70
2022-08-24T12:40:56.481Z,23.63
2022-08-24T12:43:38.055Z,23.72
2022-08-24T12:46:06.842Z,23.61
2022-08-24T12:48:42.724Z,23.49
2022-08-24T12:51:24.617Z,23.50
2022-08-24T12:54:07.528Z,23.38
2022-08-24T12:57:02.817Z,23.39
2022-08-24T12:59:31.851Z,23.35
2022-08-24T13:02:07.400Z,23.21
2022-08-24T13:04:40.309Z,23.29
2022-08-24T13:07:26.189Z,23.37
2022-08-24T13:09:52.711Z,23.42
2022-08-24T13:12:54.450Z,23.36
2022-08-24T13:15:46.283Z,23.25
2022-08-24T13:18:12.927Z,23.15
2022-08-24T13:20:58.095Z,23.13
2022-08-24T13:23:25.164Z,23.11
2022-08-24T13:25:54.150Z,23.09
2022-08-24T13:28:20.871Z,23.05
2022-08-24T13:31:02.960Z,23.03
2022-08-24T13:33:44.984Z,23.03
2022-08-24T13:36:42.670Z,23.02
2022-08-24T13:39:37.386Z,22.98
2022-08-24T13:42:19.527Z,23.06
2022-08-24T13:45:02.603Z,23.23
2022-08-24T13:47:29.215Z,23.48
2022-08-24T13:50:12.175Z,23.44
2022-08-24T13:53:04.877Z,23.54
2022-08-24T13:55:43.747Z,23.51
2022-08-24T13:58:39.288Z,23.48
2022-08-24T14:01:45.255Z,23.41
2022-08-24T14:04:27.229Z,23.35
2022-08-24T14:07:10.202Z,23.31
2022-08-24T14:09:53.811Z,23.37
2022-08-24T14:12:21.537Z,23.57
2022-08-24T14:15:06.715Z,23.66
2022-08-24T14:18:04.128Z,23.62
2022-08-24T14:20:30.837Z,23.49
2022-08-24T14:23:25.902Z,23.47
2022-08-24T14:26:27.739Z,23.40
2022-08-24T14:28:54.428Z,23.35
2022-08-24T14:31:28.502Z,23.31
2022-08-24T14:34:11.530Z,23.25
2022-08-24T14:36:57.275Z,23.28
2022-08-24T14:39:42.091Z,23.47
2022-08-24T14:42:17.374Z,23.44
2022-08-24T14:44:44.991Z,23.36
2022-08-24T14:47:42.187Z,23.31
2022-08-24T14:50:14.301Z,23.47
2022-08-24T14:52:56.235Z,23.39
2022-08-24T14:55:44.975Z,23.45
2022-08-24T14:58:29.068Z,23.44
2022-08-24T15:01:28.561Z,23.44
2022-08-24T15:04:37.117Z,23.42
2022-08-24T15:07:27.080Z,23.42
2022-08-24T15:09:55.763Z,23.51
2022-08-24T15:12:33.638Z,23.47
2022-08-24T15:15:34.059Z,23.49
2022-08-24T15:18:17.623Z,23.52
2022-08-24T15:21:03.069Z,23.48
2022-08-24T15:23:41.917Z,23.46
2022-08-24T15:26:18.276Z,23.40
2022-08-24T15:28:55.256Z,23.31
2022-08-24T15:31:28.293Z,23.25
2022-08-24T15:34:02.138Z,23.33
2022-08-24T15:36:32.964Z,23.43
2022-08-24T15:39:01.703Z,23.37
2022-08-24T15:41:31.336Z,23.34
2022-08-24T15:44:04.030Z,23.36
2022-08-24T15:46:43.049Z,23.53
2022-08-24T15:49:22.398Z,23.53
2022-08-24T15:51:53.382Z,23.68
2022-08-24T15:54:32.656Z,23.63
2022-08-24T15:57:04.588Z,23.75
2022-08-24T15:59:44.476Z,23.72
2022-08-24T16:02:26.538Z,23.65
2022-08-24T16:05:23.210Z,23.67
2022-08-24T16:08:05.168Z,24.08
2022-08-24T16:10:33.334Z,24.17
2022-08-24T16:13:25.640Z,24.34
2022-08-24T16:16:05.158Z,24.31
2022-08-24T16:18:53.578Z,24.42
2022-08-24T16:21:24.953Z,24.59
2022-08-24T16:24:02.107Z,24.55
2022-08-24T16:26:51.302Z,24.56
2022-08-24T16:29:45.994Z,24.34
2022-08-24T16:32:22.283Z,24.15
2022-08-24T16:35:18.250Z,24.09
2022-08-24T16:37:44.883Z,24.08
2022-08-24T16:40:12.589Z,24.03
2022-08-24T16:42:40.406Z,23.90
2022-08-24T16:45:10.145Z,23.79
2022-08-24T16:47:36.795Z,23.69
2022-08-24T16:50:05.393Z,23.64
2022-08-24T16:52:32.061Z,23.55
2022-08-24T16:55:00.534Z,23.52
2022-08-24T16:57:31.036Z,23.44
2022-08-24T16:59:58.140Z,23.37
2022-08-24T17:02:26.009Z,23.32
2022-08-24T17:04:54.608Z,23.24
2022-08-24T17:07:26.194Z,23.17
2022-08-24T17:09:54.254Z,23.10
2022-08-24T17:12:21.067Z,23.06
2022-08-24T17:14:48.002Z,22.99
2022-08-24T17:17:21.413Z,22.91
2022-08-24T17:19:51.117Z,22.85
2022-08-24T17:22:17.992Z,22.80
2022-08-24T17:24:45.819Z,22.76
2022-08-24T17:27:14.213Z,22.73
2022-08-24T17:29:43.528Z,22.69
2022-08-24T17:32:10.660Z,22.63
2022-08-24T17:34:37.607Z,22.61
2022-08-24T17:37:04.895Z,22.54
2022-08-24T17:39:31.650Z,22.47
2022-08-24T17:41:59.079Z,22.44
2022-08-24T17:44:29.484Z,22.42
2022-08-24T17:46:59.509Z,22.35
2022-08-24T17:49:28.007Z,22.30
2022-08-24T17:51:55.246Z,22.22
2022-08-24T17:54:22.539Z,22.15
2022-08-24T17:56:50.935Z,22.12
2022-08-24T17:59:31.527Z,22.02
2022-08-24T18:02:01.762Z,21.94
2022-08-24T18:04:31.366Z,21.87
2022-08-24T18:07:01.147Z,21.77
2022-08-24T18:09:37.115Z,21.69
2022-08-24T18:12:08.260Z,21.58
2022-08-24T18:14:36.029Z,21.46
2022-08-24T18:17:06.688Z,21.35
2022-08-24T18:19:34.090Z,21.29
2022-08-24T18:22:01.887Z,21.25
2022-08-24T18:24:32.466Z,21.23
2022-08-24T18:27:03.129Z,21.13
2022-08-24T18:29:39.264Z,21.11
2022-08-24T18:32:07.211Z,21.06
2022-08-24T18:34:34.659Z,20.95
2022-08-24T18:37:01.580Z,20.89
2022-08-24T18:39:28.632Z,20.78
2022-08-24T18:41:57.536Z,20.76
2022-08-24T18:44:27.231Z,20.72
2022-08-24T18:46:57.780Z,20.65
2022-08-24T18:49:24.406Z,20.60
2022-08-24T18:51:51.070Z,20.56
2022-08-24T18:54:20.605Z,20.49
2022-08-24T18:56:47.882Z,20.46
2022-08-24T18:59:16.699Z,20.44
2022-08-24T19:02:00.028Z,20.37
2022-08-24T19:04:32.907Z,20.29
2022-08-24T19:07:03.593Z,20.25
2022-08-24T19:09:34.187Z,20.26
2022-08-24T19:12:02.580Z,20.22
2022-08-24T19:14:29.270Z,20.15
2022-08-24T19:16:55.818Z,20.15
2022-08-24T19:19:22.579Z,20.09
2022-08-24T19:21:49.492Z,20.03
2022-08-24T19:24:19.285Z,20.03
2022-08-24T19:26:45.918Z,19.99
2022-08-24T19:29:12.590Z,19.90
2022-08-24T19:31:39.329Z,19.94
2022-08-24T19:34:06.715Z,19.96
2022-08-24T19:36:33.465Z,19.90
2022-08-24T19:39:00.223Z,19.90
2022-08-24T19:41:36.598Z,19.87
2022-08-24T19:44:27.590Z,19.83
2022-08-24T19:46:55.687Z,19.83
2022-08-24T19:49:22.919Z,19.77
2022-08-24T19:51:50.922Z,19.69
2022-08-24T19:54:17.698Z,19.60
2022-08-24T19:56:45.413Z,19.56
2022-08-24T19:59:24.682Z,19.50
2022-08-24T20:01:51.415Z,19.45
2022-08-24T20:04:18.101Z,19.41
2022-08-24T20:06:45.765Z,19.39
2022-08-24T20:09:12.426Z,19.38
2022-08-24T20:11:39.556Z,19.32
2022-08-24T20:14:07.158Z,19.31
2022-08-24T20:16:37.871Z,19.28
2022-08-24T20:19:05.582Z,19.30
2022-08-24T20:21:32.470Z,19.24
2022-08-24T20:24:00.768Z,19.24
2022-08-24T20:26:32.059Z,19.22
2022-08-24T20:28:59.098Z,19.14
2022-08-24T20:31:28.615Z,19.08
2022-08-24T20:33:57.154Z,19.07
2022-08-24T20:36:27.241Z,19.05
2022-08-24T20:38:56.595Z,18.99
2022-08-24T20:41:23.700Z,18.94
2022-08-24T20:43:50.346Z,18.94
2022-08-24T20:46:17.113Z,18.91
2022-08-24T20:48:44.979Z,18.90
2022-08-24T20:51:12.282Z,18.89
2022-08-24T20:53:38.911Z,18.94
2022-08-24T20:56:10.251Z,18.79
2022-08-24T20:58:39.125Z,18.68
2022-08-24T21:01:07.481Z,18.69
2022-08-24T21:03:34.362Z,18.67
2022-08-24T21:06:01.041Z,18.65
2022-08-24T21:08:27.672Z,18.65
2022-08-24T21:10:55.047Z,18.66
2022-08-24T21:13:21.901Z,18.64
2022-08-24T21:15:48.971Z,18.65
2022-08-24T21:18:15.767Z,18.67
2022-08-24T21:20:49.251Z,18.66
2022-08-24T21:23:30.094Z,18.68
2022-08-24T21:25:57.278Z,18.56
2022-08-24T21:28:24.033Z,18.45
2022-08-24T21:30:50.635Z,18.41
2022-08-24T21:33:32.496Z,18.40
2022-08-24T21:35:59.486Z,18.39
2022-08-24T21:38:26.975Z,18.36
2022-08-24T21:40:54.371Z,18.30
2022-08-24T21:43:21.744Z,18.24
2022-08-24T21:45:50.169Z,18.19
2022-08-24T21:48:18.680Z,18.06
2022-08-24T21:50:45.778Z,18.10
2022-08-24T21:53:12.367Z,18.08
2022-08-24T21:55:41.390Z,17.97
2022-08-24T21:58:10.034Z,18.04
2022-08-24T22:00:36.943Z,18.03
2022-08-24T22:03:05.054Z,18.00
2022-08-24T22:05:32.224Z,17.96
2022-08-24T22:07:58.934Z,17.99
2022-08-24T22:10:26.422Z,17.95
2022-08-24T22:12:53.728Z,17.92
2022-08-24T22:15:23.416Z,17.88
2022-08-24T22:17:52.611Z,17.83
2022-08-24T22:20:23.004Z,17.72
2022-08-24T22:22:50.455Z,17.62
2022-08-24T22:25:17.125Z,17.57
2022-08-24T22:27:45.831Z,17.44
2022-08-24T22:30:15.066Z,17.36
2022-08-24T22:32:41.604Z,17.25
2022-08-24T22:35:08.656Z,17.32
2022-08-24T22:37:35.739Z,17.40
2022-08-24T22:40:03.905Z,17.43
2022-08-24T22:42:30.785Z,17.40
2022-08-24T22:44:58.651Z,17.38
2022-08-24T22:47:27.013Z,17.37
2022-08-24T22:49:55.020Z,17.35
2022-08-24T22:52:21.633Z,17.35
2022-08-24T22:54:48.532Z,17.29
2022-08-24T22:57:17.674Z,17.26
2022-08-24T22:59:46.590Z,17.22
2022-08-24T23:02:16.632Z,17.15
2022-08-24T23:04:49.921Z,17.12
2022-08-24T23:07:20.580Z,17.08
2022-08-24T23:09:47.527Z,16.99
2022-08-24T23:12:17.978Z,16.95
2022-08-24T23:14:44.862Z,17.01
2022-08-24T23:17:12.125Z,17.03
2022-08-24T23:19:54.107Z,17.06
2022-08-24T23:22:21.284Z,17.05
2022-08-24T23:24:48.784Z,17.02
2022-08-24T23:27:17.328Z,16.97
2022-08-24T23:29:44.663Z,16.82
2022-08-24T23:32:12.036Z,16.88
2022-08-24T23:34:38.859Z,16.90
2022-08-24T23:37:05.919Z,16.79
2022-08-24T23:39:32.608Z,16.63
2022-08-24T23:41:59.470Z,16.67
2022-08-24T23:44:28.714Z,16.72
2022-08-24T23:46:58.044Z,16.64
2022-08-24T23:49:25.766Z,16.67
2022-08-24T23:51:52.937Z,16.66
2022-08-24T23:54:20.698Z,16.64
2022-08-24T23:56:48.739Z,16.57
2022-08-24T23:59:19.414Z,16.53
